sensor_id;sensor_type;location;lat;lon;timestamp;pressure;altitude;pressure_sealevel;temperature;humidity
15050;BME280;7622;42.724;23.250;2023-06-14T00:02:02;94306.34;;;17.42;100.00
15050;BME280;7622;42.724;23.250;2023-06-14T00:04:34;94309.66;;;17.57;100.00
15050;BME280;7622;42.724;23.250;2023-06-14T00:07:00;94303.66;;;17.63;100.00
15050;BME280;7622;42.724;23.250;2023-06-14T00:09:27;94303.47;;;17.71;100.00
15050;BME280;7622;42.724;23.250;2023-06-14T00:11:54;94299.41;;;17.62;100.00
15050;BME280;7622;42.724;23.250;2023-06-14T00:14:22;94310.06;;;17.54;100.00
15050;BME280;7622;42.724;23.250;2023-06-14T00:16:49;94302.25;;;17.61;100.00
15050;BME280;7622;42.724;23.250;2023-06-14T00:19:18;94308.03;;;17.56;100.00
15050;BME280;7622;42.724;23.250;2023-06-14T00:21:46;94284.94;;;17.45;100.00
15050;BME280;7622;42.724;23.250;2023-06-14T00:24:13;94294.75;;;17.30;100.00
15050;BME280;7622;42.724;23.250;2023-06-14T00:26:39;94295.00;;;17.35;100.00
15050;BME280;7622;42.724;23.250;2023-06-14T00:29:06;94290.91;;;17.26;100.00
15050;BME280;7622;42.724;23.250;2023-06-14T00:31:34;94290.13;;;17.32;100.00
15050;BME280;7622;42.724;23.250;2023-06-14T00:34:01;94279.78;;;17.24;100.00
15050;BME280;7622;42.724;23.250;2023-06-14T00:36:28;94285.88;;;17.31;100.00
15050;BME280;7622;42.724;23.250;2023-06-14T00:38:54;94287.72;;;17.37;100.00
15050;BME280;7622;42.724;23.250;2023-06-14T00:41:21;94284.94;;;17.45;100.00
15050;BME280;7622;42.724;23.250;2023-06-14T00:43:48;94285.41;;;17.55;100.00
15050;BME280;7622;42.724;23.250;2023-06-14T00:46:15;94282.16;;;17.53;100.00
15050;BME280;7622;42.724;23.250;2023-06-14T00:48:43;94282.16;;;17.53;100.00
15050;BME280;7622;42.724;23.250;2023-06-14T00:51:10;94286.56;;;17.46;100.00
15050;BME280;7622;42.724;23.250;2023-06-14T00:53:36;94283.38;;;17.57;100.00
15050;BME280;7622;42.724;23.250;2023-06-14T00:56:05;94280.16;;;17.55;100.00
15050;BME280;7622;42.724;23.250;2023-06-14T00:58:32;94283.19;;;17.59;100.00
15050;BME280;7622;42.724;23.250;2023-06-14T01:00:59;94284.00;;;17.59;100.00
15050;BME280;7622;42.724;23.250;2023-06-14T01:03:26;94279.44;;;17.68;100.00
15050;BME280;7622;42.724;23.250;2023-06-14T01:06:01;94283.06;;;17.67;100.00
15050;BME280;7622;42.724;23.250;2023-06-14T01:08:40;94270.31;;;17.64;100.00
15050;BME280;7622;42.724;23.250;2023-06-14T01:11:16;94276.91;;;17.53;100.00
15050;BME280;7622;42.724;23.250;2023-06-14T01:13:46;94278.69;;;17.46;100.00
15050;BME280;7622;42.724;23.250;2023-06-14T01:16:14;94271.19;;;17.43;100.00
15050;BME280;7622;42.724;23.250;2023-06-14T01:18:41;94286.06;;;17.29;100.00
15050;BME280;7622;42.724;23.250;2023-06-14T01:21:21;94287.66;;;17.24;100.00
15050;BME280;7622;42.724;23.250;2023-06-14T01:23:50;94278.56;;;17.20;100.00
15050;BME280;7622;42.724;23.250;2023-06-14T01:26:19;94276.75;;;17.20;100.00
15050;BME280;7622;42.724;23.250;2023-06-14T01:28:46;94281.41;;;17.25;100.00
15050;BME280;7622;42.724;23.250;2023-06-14T01:31:18;94265.22;;;17.15;100.00
15050;BME280;7622;42.724;23.250;2023-06-14T01:33:47;94280.00;;;17.29;100.00
15050;BME280;7622;42.724;23.250;2023-06-14T01:36:15;94268.44;;;17.17;100.00
15050;BME280;7622;42.724;23.250;2023-06-14T01:38:44;94267.84;;;17.15;100.00
15050;BME280;7622;42.724;23.250;2023-06-14T01:41:13;94278.38;;;17.21;100.00
15050;BME280;7622;42.724;23.250;2023-06-14T01:43:41;94279.16;;;17.22;100.00
15050;BME280;7622;42.724;23.250;2023-06-14T01:46:09;94285.50;;;17.34;100.00
15050;BME280;7622;42.724;23.250;2023-06-14T01:48:37;94282.38;;;17.17;100.00
15050;BME280;7622;42.724;23.250;2023-06-14T01:51:04;94277.91;;;17.11;100.00
15050;BME280;7622;42.724;23.250;2023-06-14T01:53:30;94282.03;;;17.27;100.00
15050;BME280;7622;42.724;23.250;2023-06-14T01:55:57;94291.50;;;16.93;100.00
15050;BME280;7622;42.724;23.250;2023-06-14T01:58:25;94289.19;;;17.12;100.00
15050;BME280;7622;42.724;23.250;2023-06-14T02:00:52;94293.31;;;17.21;100.00
15050;BME280;7622;42.724;23.250;2023-06-14T02:03:20;94290.91;;;17.26;100.00
15050;BME280;7622;42.724;23.250;2023-06-14T02:05:48;94293.13;;;17.29;100.00
15050;BME280;7622;42.724;23.250;2023-06-14T02:08:15;94301.00;;;17.29;100.00
15050;BME280;7622;42.724;23.250;2023-06-14T02:10:42;94309.09;;;17.27;100.00
15050;BME280;7622;42.724;23.250;2023-06-14T02:13:09;94305.63;;;17.20;100.00
15050;BME280;7622;42.724;23.250;2023-06-14T02:15:37;94295.31;;;17.19;100.00
15050;BME280;7622;42.724;23.250;2023-06-14T02:18:04;94299.06;;;17.10;100.00
15050;BME280;7622;42.724;23.250;2023-06-14T02:20:31;94311.44;;;17.16;100.00
15050;BME280;7622;42.724;23.250;2023-06-14T02:22:58;94313.06;;;17.17;100.00
15050;BME280;7622;42.724;23.250;2023-06-14T02:25:24;94321.84;;;17.03;100.00
15050;BME280;7622;42.724;23.250;2023-06-14T02:27:53;94311.44;;;17.16;100.00
15050;BME280;7622;42.724;23.250;2023-06-14T02:30:20;94308.38;;;17.12;100.00
15050;BME280;7622;42.724;23.250;2023-06-14T02:32:48;94314.59;;;17.05;100.00
15050;BME280;7622;42.724;23.250;2023-06-14T02:35:16;94314.16;;;17.01;100.00
15050;BME280;7622;42.724;23.250;2023-06-14T02:37:43;94304.81;;;16.92;100.00
15050;BME280;7622;42.724;23.250;2023-06-14T02:40:10;94312.91;;;16.97;100.00
15050;BME280;7622;42.724;23.250;2023-06-14T02:42:37;94313.72;;;16.98;100.00
15050;BME280;7622;42.724;23.250;2023-06-14T02:45:05;94303.72;;;17.08;100.00
15050;BME280;7622;42.724;23.250;2023-06-14T02:47:33;94301.56;;;16.90;100.00
15050;BME280;7622;42.724;23.250;2023-06-14T02:50:05;94295.50;;;16.89;100.00
15050;BME280;7622;42.724;23.250;2023-06-14T02:52:34;94275.28;;;16.83;100.00
15050;BME280;7622;42.724;23.250;2023-06-14T02:55:00;94303.19;;;16.91;100.00
15050;BME280;7622;42.724;23.250;2023-06-14T02:57:27;94235.13;;;16.34;100.00
15050;BME280;7622;42.724;23.250;2023-06-14T02:59:54;94308.63;;;16.89;100.00
15050;BME280;7622;42.724;23.250;2023-06-14T03:02:20;94314.06;;;16.88;100.00
15050;BME280;7622;42.724;23.250;2023-06-14T03:04:47;94313.72;;;16.98;100.00
15050;BME280;7622;42.724;23.250;2023-06-14T03:07:15;94317.22;;;17.05;100.00
15050;BME280;7622;42.724;23.250;2023-06-14T03:09:44;94323.47;;;17.04;100.00
15050;BME280;7622;42.724;23.250;2023-06-14T03:12:12;94314.81;;;17.10;100.00
15050;BME280;7622;42.724;23.250;2023-06-14T03:14:38;94325.56;;;17.15;100.00
15050;BME280;7622;42.724;23.250;2023-06-14T03:17:05;94332.28;;;16.96;100.00
15050;BME280;7622;42.724;23.250;2023-06-14T03:19:33;94332.22;;;16.89;100.00
15050;BME280;7622;42.724;23.250;2023-06-14T03:22:00;94337.16;;;16.99;100.00
15050;BME280;7622;42.724;23.250;2023-06-14T03:24:29;94336.91;;;17.22;100.00
15050;BME280;7622;42.724;23.250;2023-06-14T03:26:57;94345.00;;;17.20;100.00
15050;BME280;7622;42.724;23.250;2023-06-14T03:29:24;94324.31;;;17.11;100.00
15050;BME280;7622;42.724;23.250;2023-06-14T03:31:59;94326.31;;;17.09;100.00
15050;BME280;7622;42.724;23.250;2023-06-14T03:34:27;94346.13;;;17.11;100.00
15050;BME280;7622;42.724;23.250;2023-06-14T03:36:54;94340.13;;;17.17;100.00
15050;BME280;7622;42.724;23.250;2023-06-14T03:39:20;94336.41;;;17.05;100.00
15050;BME280;7622;42.724;23.250;2023-06-14T03:41:48;94339.69;;;17.14;100.00
15050;BME280;7622;42.724;23.250;2023-06-14T03:44:16;94339.69;;;17.14;100.00
15050;BME280;7622;42.724;23.250;2023-06-14T03:46:43;94339.16;;;17.25;100.00
15050;BME280;7622;42.724;23.250;2023-06-14T03:49:10;94332.38;;;17.09;100.00
15050;BME280;7622;42.724;23.250;2023-06-14T03:51:37;94332.81;;;17.13;100.00
15050;BME280;7622;42.724;23.250;2023-06-14T03:54:05;94308.47;;;16.98;100.00
15050;BME280;7622;42.724;23.250;2023-06-14T03:56:32;94336.84;;;17.15;100.00
15050;BME280;7622;42.724;23.250;2023-06-14T03:59:00;94340.13;;;17.17;100.00
15050;BME280;7622;42.724;23.250;2023-06-14T04:01:27;94328.28;;;17.28;100.00
15050;BME280;7622;42.724;23.250;2023-06-14T04:03:55;94334.22;;;17.43;100.00
15050;BME280;7622;42.724;23.250;2023-06-14T04:06:23;94325.16;;;17.46;100.00
15050;BME280;7622;42.724;23.250;2023-06-14T04:08:51;94326.63;;;17.55;100.00
15050;BME280;7622;42.724;23.250;2023-06-14T04:11:18;94345.34;;;17.80;100.00
15050;BME280;7622;42.724;23.250;2023-06-14T04:13:45;94343.34;;;17.82;100.00
15050;BME280;7622;42.724;23.250;2023-06-14T04:16:15;94337.75;;;17.98;100.00
15050;BME280;7622;42.724;23.250;2023-06-14T04:18:42;94332.47;;;17.98;100.00
15050;BME280;7622;42.724;23.250;2023-06-14T04:21:08;94345.13;;;18.22;100.00
15050;BME280;7622;42.724;23.250;2023-06-14T04:23:35;94349.72;;;18.07;100.00
15050;BME280;7622;42.724;23.250;2023-06-14T04:26:03;94343.66;;;18.13;100.00
15050;BME280;7622;42.724;23.250;2023-06-14T04:28:30;94354.03;;;18.28;100.00
15050;BME280;7622;42.724;23.250;2023-06-14T04:30:57;94348.00;;;18.40;100.00
15050;BME280;7622;42.724;23.250;2023-06-14T04:33:28;94347.88;;;18.01;100.00
15050;BME280;7622;42.724;23.250;2023-06-14T04:35:55;94344.63;;;17.99;100.00
15050;BME280;7622;42.724;23.250;2023-06-14T04:38:21;94345.63;;;17.98;100.00
15050;BME280;7622;42.724;23.250;2023-06-14T04:40:50;94353.34;;;18.06;100.00
15050;BME280;7622;42.724;23.250;2023-06-14T04:43:18;94346.72;;;18.10;100.00
15050;BME280;7622;42.724;23.250;2023-06-14T04:45:53;94348.81;;;18.47;100.00
15050;BME280;7622;42.724;23.250;2023-06-14T04:48:20;94352.75;;;18.78;100.00
15050;BME280;7622;42.724;23.250;2023-06-14T04:50:49;94357.03;;;18.92;100.00
15050;BME280;7622;42.724;23.250;2023-06-14T04:53:18;94364.31;;;19.10;100.00
15050;BME280;7622;42.724;23.250;2023-06-14T04:55:47;94372.19;;;19.16;100.00
15050;BME280;7622;42.724;23.250;2023-06-14T04:58:14;94376.06;;;19.40;100.00
15050;BME280;7622;42.724;23.250;2023-06-14T05:00:40;94379.69;;;19.59;100.00
15050;BME280;7622;42.724;23.250;2023-06-14T05:03:08;94371.59;;;19.34;100.00
15050;BME280;7622;42.724;23.250;2023-06-14T05:05:39;94380.09;;;19.16;100.00
15050;BME280;7622;42.724;23.250;2023-06-14T05:08:07;94377.28;;;18.98;100.00
15050;BME280;7622;42.724;23.250;2023-06-14T05:10:34;94381.91;;;19.09;100.00
15050;BME280;7622;42.724;23.250;2023-06-14T05:13:01;94381.72;;;19.31;100.00
15050;BME280;7622;42.724;23.250;2023-06-14T05:15:28;94390.44;;;19.38;100.00
15050;BME280;7622;42.724;23.250;2023-06-14T05:17:55;94388.03;;;19.49;100.00
15050;BME280;7622;42.724;23.250;2023-06-14T05:20:22;94387.44;;;19.47;100.00
15050;BME280;7622;42.724;23.250;2023-06-14T05:22:50;94394.69;;;19.45;100.00
15050;BME280;7622;42.724;23.250;2023-06-14T05:25:19;94397.13;;;19.53;100.00
15050;BME280;7622;42.724;23.250;2023-06-14T05:27:46;94406.47;;;19.43;100.00
15050;BME280;7622;42.724;23.250;2023-06-14T05:30:13;94406.03;;;19.33;100.00
15050;BME280;7622;42.724;23.250;2023-06-14T05:32:40;94418.22;;;19.47;100.00
15050;BME280;7622;42.724;23.250;2023-06-14T05:35:08;94413.94;;;19.39;100.00
15050;BME280;7622;42.724;23.250;2023-06-14T05:37:36;94411.50;;;19.38;100.00
15050;BME280;7622;42.724;23.250;2023-06-14T05:40:07;94409.69;;;19.32;100.00
15050;BME280;7622;42.724;23.250;2023-06-14T05:42:37;94412.50;;;19.17;100.00
15050;BME280;7622;42.724;23.250;2023-06-14T05:45:05;94412.50;;;19.23;100.00
15050;BME280;7622;42.724;23.250;2023-06-14T05:47:32;94406.44;;;19.29;100.00
15050;BME280;7622;42.724;23.250;2023-06-14T05:49:59;94407.66;;;19.34;100.00
15050;BME280;7622;42.724;23.250;2023-06-14T05:52:26;94411.31;;;19.33;100.00
15050;BME280;7622;42.724;23.250;2023-06-14T05:54:53;94419.22;;;19.33;100.00
15050;BME280;7622;42.724;23.250;2023-06-14T05:57:20;94422.25;;;19.29;100.00
15050;BME280;7622;42.724;23.250;2023-06-14T05:59:48;94417.38;;;19.20;100.00
15050;BME280;7622;42.724;23.250;2023-06-14T06:02:15;94421.44;;;19.22;100.00
15050;BME280;7622;42.724;23.250;2023-06-14T06:04:42;94415.75;;;19.32;100.00
15050;BME280;7622;42.724;23.250;2023-06-14T06:07:09;94421.22;;;19.31;100.00
15050;BME280;7622;42.724;23.250;2023-06-14T06:09:36;94422.25;;;19.43;100.00
15050;BME280;7622;42.724;23.250;2023-06-14T06:12:06;94431.22;;;19.48;100.00
15050;BME280;7622;42.724;23.250;2023-06-14T06:14:33;94428.13;;;19.32;100.00
15050;BME280;7622;42.724;23.250;2023-06-14T06:17:01;94425.09;;;19.41;100.00
15050;BME280;7622;42.724;23.250;2023-06-14T06:19:28;94421.22;;;19.31;100.00
15050;BME280;7622;42.724;23.250;2023-06-14T06:21:55;94425.69;;;19.23;100.00
15050;BME280;7622;42.724;23.250;2023-06-14T06:24:21;94440.47;;;19.24;100.00
15050;BME280;7622;42.724;23.250;2023-06-14T06:26:48;94431.97;;;19.22;100.00
15050;BME280;7622;42.724;23.250;2023-06-14T06:29:15;94432.00;;;19.42;100.00
15050;BME280;7622;42.724;23.250;2023-06-14T06:31:41;94438.66;;;19.64;100.00
15050;BME280;7622;42.724;23.250;2023-06-14T06:34:09;94435.66;;;19.67;100.00
15050;BME280;7622;42.724;23.250;2023-06-14T06:36:36;94431.75;;;19.90;100.00
15050;BME280;7622;42.724;23.250;2023-06-14T06:39:03;94431.13;;;20.01;100.00
15050;BME280;7622;42.724;23.250;2023-06-14T06:41:35;94437.88;;;20.48;100.00
15050;BME280;7622;42.724;23.250;2023-06-14T06:44:03;94450.19;;;21.05;100.00
15050;BME280;7622;42.724;23.250;2023-06-14T06:46:29;94436.50;;;20.83;100.00
15050;BME280;7622;42.724;23.250;2023-06-14T06:48:56;94447.63;;;20.92;100.00
15050;BME280;7622;42.724;23.250;2023-06-14T06:51:26;94445.31;;;21.09;100.00
15050;BME280;7622;42.724;23.250;2023-06-14T06:53:56;94448.31;;;21.19;100.00
15050;BME280;7622;42.724;23.250;2023-06-14T06:56:24;94450.75;;;21.45;100.00
15050;BME280;7622;42.724;23.250;2023-06-14T06:58:51;94453.41;;;22.13;100.00
15050;BME280;7622;42.724;23.250;2023-06-14T07:01:18;94451.50;;;22.75;100.00
15050;BME280;7622;42.724;23.250;2023-06-14T07:03:45;94451.22;;;22.65;100.00
15050;BME280;7622;42.724;23.250;2023-06-14T07:06:12;94453.13;;;22.58;100.00
15050;BME280;7622;42.724;23.250;2023-06-14T07:08:40;94459.44;;;22.93;100.00
15050;BME280;7622;42.724;23.250;2023-06-14T07:11:07;94458.44;;;23.06;100.00
15050;BME280;7622;42.724;23.250;2023-06-14T07:13:33;94452.63;;;23.69;100.00
15050;BME280;7622;42.724;23.250;2023-06-14T07:16:01;94456.22;;;23.98;100.00
15050;BME280;7622;42.724;23.250;2023-06-14T07:18:28;94453.56;;;24.44;100.00
15050;BME280;7622;42.724;23.250;2023-06-14T07:20:56;94457.19;;;24.26;100.00
15050;BME280;7622;42.724;23.250;2023-06-14T07:23:22;94453.34;;;23.76;100.00
15050;BME280;7622;42.724;23.250;2023-06-14T07:25:50;94448.97;;;23.40;100.00
15050;BME280;7622;42.724;23.250;2023-06-14T07:28:17;94455.59;;;23.19;100.00
15050;BME280;7622;42.724;23.250;2023-06-14T07:30:44;94451.69;;;23.51;100.00
15050;BME280;7622;42.724;23.250;2023-06-14T07:33:11;94448.94;;;23.81;100.00
15050;BME280;7622;42.724;23.250;2023-06-14T07:35:38;94456.22;;;23.74;100.00
15050;BME280;7622;42.724;23.250;2023-06-14T07:38:05;94450.13;;;23.85;100.00
15050;BME280;7622;42.724;23.250;2023-06-14T07:40:32;94456.91;;;23.81;100.00
15050;BME280;7622;42.724;23.250;2023-06-14T07:43:00;94449.53;;;23.83;100.00
15050;BME280;7622;42.724;23.250;2023-06-14T07:45:27;94461.28;;;23.64;100.00
15050;BME280;7622;42.724;23.250;2023-06-14T07:47:54;94454.00;;;23.60;100.00
15050;BME280;7622;42.724;23.250;2023-06-14T07:50:21;94457.53;;;23.42;100.00
15050;BME280;7622;42.724;23.250;2023-06-14T07:52:48;94465.59;;;23.47;100.00
15050;BME280;7622;42.724;23.250;2023-06-14T07:55:15;94465.34;;;23.37;100.00
15050;BME280;7622;42.724;23.250;2023-06-14T07:57:42;94466.53;;;23.11;100.00
15050;BME280;7622;42.724;23.250;2023-06-14T08:00:12;94469.03;;;23.06;100.00
15050;BME280;7622;42.724;23.250;2023-06-14T08:02:41;94460.69;;;23.50;100.00
15050;BME280;7622;42.724;23.250;2023-06-14T08:05:09;94475.63;;;24.33;100.00
15050;BME280;7622;42.724;23.250;2023-06-14T08:07:36;94480.19;;;25.13;100.00
15050;BME280;7622;42.724;23.250;2023-06-14T08:10:03;94479.28;;;25.64;100.00
15050;BME280;7622;42.724;23.250;2023-06-14T08:12:30;94485.34;;;25.93;100.00
15050;BME280;7622;42.724;23.250;2023-06-14T08:14:57;94491.66;;;26.42;100.00
15050;BME280;7622;42.724;23.250;2023-06-14T08:17:25;94469.56;;;26.85;99.33
15050;BME280;7622;42.724;23.250;2023-06-14T08:19:52;94494.22;;;27.40;94.93
15050;BME280;7622;42.724;23.250;2023-06-14T08:22:22;94504.50;;;26.61;97.41
15050;BME280;7622;42.724;23.250;2023-06-14T08:24:49;94501.06;;;26.11;100.00
15050;BME280;7622;42.724;23.250;2023-06-14T08:27:16;94494.66;;;27.05;95.36
15050;BME280;7622;42.724;23.250;2023-06-14T08:29:43;94492.75;;;26.84;96.03
15050;BME280;7622;42.724;23.250;2023-06-14T08:32:10;94495.88;;;26.38;99.58
15050;BME280;7622;42.724;23.250;2023-06-14T08:34:38;94500.19;;;25.43;100.00
15050;BME280;7622;42.724;23.250;2023-06-14T08:37:04;94492.66;;;25.24;100.00
15050;BME280;7622;42.724;23.250;2023-06-14T08:39:31;94492.59;;;25.35;100.00
15050;BME280;7622;42.724;23.250;2023-06-14T08:42:01;94489.94;;;25.07;100.00
15050;BME280;7622;42.724;23.250;2023-06-14T08:44:28;94484.59;;;25.07;100.00
15050;BME280;7622;42.724;23.250;2023-06-14T08:46:56;94479.09;;;24.85;100.00
15050;BME280;7622;42.724;23.250;2023-06-14T08:49:25;94474.69;;;25.02;100.00
15050;BME280;7622;42.724;23.250;2023-06-14T08:51:57;94481.53;;;24.87;100.00
15050;BME280;7622;42.724;23.250;2023-06-14T08:54:25;94465.88;;;24.62;100.00
15050;BME280;7622;42.724;23.250;2023-06-14T08:56:55;94475.09;;;25.11;100.00
15050;BME280;7622;42.724;23.250;2023-06-14T08:59:24;94476.59;;;24.79;100.00
15050;BME280;7622;42.724;23.250;2023-06-14T09:01:52;94475.13;;;24.59;100.00
15050;BME280;7622;42.724;23.250;2023-06-14T09:04:20;94477.03;;;24.24;100.00
15050;BME280;7622;42.724;23.250;2023-06-14T09:06:47;94478.38;;;24.15;100.00
15050;BME280;7622;42.724;23.250;2023-06-14T09:09:19;94479.53;;;24.07;100.00
15050;BME280;7622;42.724;23.250;2023-06-14T09:11:46;94474.81;;;24.09;100.00
15050;BME280;7622;42.724;23.250;2023-06-14T09:14:13;94463.84;;;24.29;100.00
15050;BME280;7622;42.724;23.250;2023-06-14T09:16:40;94465.56;;;24.35;100.00
15050;BME280;7622;42.724;23.250;2023-06-14T09:19:07;94466.47;;;24.52;100.00
15050;BME280;7622;42.724;23.250;2023-06-14T09:21:34;94458.25;;;24.65;100.00
15050;BME280;7622;42.724;23.250;2023-06-14T09:24:01;94462.78;;;24.42;100.00
15050;BME280;7622;42.724;23.250;2023-06-14T09:26:31;94456.91;;;24.28;100.00
15050;BME280;7622;42.724;23.250;2023-06-14T09:28:58;94452.66;;;24.79;100.00
15050;BME280;7622;42.724;23.250;2023-06-14T09:31:25;94464.69;;;25.83;100.00
15050;BME280;7622;42.724;23.250;2023-06-14T09:33:57;94464.06;;;26.48;99.55
15050;BME280;7622;42.724;23.250;2023-06-14T09:36:25;94461.47;;;26.75;97.03
15050;BME280;7622;42.724;23.250;2023-06-14T09:38:52;94464.50;;;26.40;100.00
15050;BME280;7622;42.724;23.250;2023-06-14T09:41:20;94456.53;;;25.89;100.00
15050;BME280;7622;42.724;23.250;2023-06-14T09:43:48;94402.13;;;25.64;100.00
15050;BME280;7622;42.724;23.250;2023-06-14T09:46:15;94457.75;;;26.54;94.05
15050;BME280;7622;42.724;23.250;2023-06-14T09:48:42;94450.63;;;26.81;90.51
15050;BME280;7622;42.724;23.250;2023-06-14T09:51:10;94456.31;;;27.12;84.65
15050;BME280;7622;42.724;23.250;2023-06-14T09:53:39;94458.44;;;27.10;87.33
15050;BME280;7622;42.724;23.250;2023-06-14T09:56:08;94458.47;;;27.63;81.48
15050;BME280;7622;42.724;23.250;2023-06-14T09:58:39;94451.09;;;28.12;78.59
15050;BME280;7622;42.724;23.250;2023-06-14T10:01:08;94447.22;;;28.35;76.58
15050;BME280;7622;42.724;23.250;2023-06-14T10:03:39;94445.66;;;28.02;78.25
15050;BME280;7622;42.724;23.250;2023-06-14T10:06:08;94440.88;;;28.41;76.08
15050;BME280;7622;42.724;23.250;2023-06-14T10:08:36;94441.06;;;28.30;74.16
15050;BME280;7622;42.724;23.250;2023-06-14T10:11:04;94437.13;;;28.00;79.77
15050;BME280;7622;42.724;23.250;2023-06-14T10:13:32;94441.09;;;28.87;75.40
15050;BME280;7622;42.724;23.250;2023-06-14T10:16:07;94435.75;;;28.87;72.13
15050;BME280;7622;42.724;23.250;2023-06-14T10:18:42;94428.69;;;28.71;71.55
15050;BME280;7622;42.724;23.250;2023-06-14T10:21:18;94432.16;;;28.61;73.25
15050;BME280;7622;42.724;23.250;2023-06-14T10:23:48;94430.34;;;28.25;75.08
15050;BME280;7622;42.724;23.250;2023-06-14T10:26:20;94434.19;;;28.96;72.88
15050;BME280;7622;42.724;23.250;2023-06-14T10:28:58;94426.38;;;28.79;72.80
15050;BME280;7622;42.724;23.250;2023-06-14T10:31:42;94426.16;;;28.96;71.30
15050;BME280;7622;42.724;23.250;2023-06-14T10:34:10;94422.44;;;29.12;70.33
15050;BME280;7622;42.724;23.250;2023-06-14T10:36:38;94409.63;;;28.00;72.89
15050;BME280;7622;42.724;23.250;2023-06-14T10:39:07;94418.88;;;27.28;77.79
15050;BME280;7622;42.724;23.250;2023-06-14T10:41:36;94415.41;;;27.87;77.90
15050;BME280;7622;42.724;23.250;2023-06-14T10:44:31;94407.44;;;27.97;79.03
15050;BME280;7622;42.724;23.250;2023-06-14T10:47:01;94410.91;;;28.34;77.46
15050;BME280;7622;42.724;23.250;2023-06-14T10:49:39;94416.16;;;28.19;74.56
15050;BME280;7622;42.724;23.250;2023-06-14T10:52:08;94409.97;;;27.76;79.64
15050;BME280;7622;42.724;23.250;2023-06-14T10:55:09;94410.63;;;27.94;74.83
15050;BME280;7622;42.724;23.250;2023-06-14T10:57:38;94381.09;;;27.41;79.54
15050;BME280;7622;42.724;23.250;2023-06-14T11:00:07;94397.75;;;27.22;80.30
15050;BME280;7622;42.724;23.250;2023-06-14T11:05:42;94392.00;;;27.67;77.56
15050;BME280;7622;42.724;23.250;2023-06-14T11:11:32;94378.63;;;27.62;81.31
15050;BME280;7622;42.724;23.250;2023-06-14T11:14:00;94381.28;;;27.30;85.52
15050;BME280;7622;42.724;23.250;2023-06-14T11:16:27;94375.28;;;27.18;84.53
15050;BME280;7622;42.724;23.250;2023-06-14T11:18:55;94374.22;;;27.77;79.79
15050;BME280;7622;42.724;23.250;2023-06-14T11:21:24;94378.78;;;28.24;74.86
15050;BME280;7622;42.724;23.250;2023-06-14T11:23:55;94373.53;;;27.60;78.65
15050;BME280;7622;42.724;23.250;2023-06-14T11:26:26;94375.28;;;26.91;85.59
15050;BME280;7622;42.724;23.250;2023-06-14T11:28:55;94367.28;;;27.18;83.21
15050;BME280;7622;42.724;23.250;2023-06-14T11:31:23;94375.19;;;27.66;78.63
15050;BME280;7622;42.724;23.250;2023-06-14T11:33:50;94374.00;;;27.89;75.76
15050;BME280;7622;42.724;23.250;2023-06-14T11:36:18;94382.19;;;27.72;77.58
15050;BME280;7622;42.724;23.250;2023-06-14T11:38:45;94376.69;;;27.25;82.21
15050;BME280;7622;42.724;23.250;2023-06-14T11:41:12;94361.81;;;26.54;84.51
15050;BME280;7622;42.724;23.250;2023-06-14T11:43:39;94361.81;;;26.54;83.99
15050;BME280;7622;42.724;23.250;2023-06-14T11:46:12;94351.41;;;26.52;86.29
15050;BME280;7622;42.724;23.250;2023-06-14T11:48:41;94346.09;;;26.79;88.85
15050;BME280;7622;42.724;23.250;2023-06-14T11:51:09;94345.59;;;26.82;86.50
15050;BME280;7622;42.724;23.250;2023-06-14T11:53:38;94348.09;;;26.67;90.59
15050;BME280;7622;42.724;23.250;2023-06-14T11:56:05;94344.03;;;26.86;89.97
15050;BME280;7622;42.724;23.250;2023-06-14T11:58:33;94346.31;;;26.99;90.56
15050;BME280;7622;42.724;23.250;2023-06-14T12:01:03;94342.19;;;26.87;85.66
15050;BME280;7622;42.724;23.250;2023-06-14T12:03:35;94338.56;;;26.98;83.53
15050;BME280;7622;42.724;23.250;2023-06-14T12:06:06;94328.94;;;26.97;80.10
15050;BME280;7622;42.724;23.250;2023-06-14T12:08:34;94320.66;;;26.93;79.86
15050;BME280;7622;42.724;23.250;2023-06-14T12:11:06;94323.16;;;26.78;80.24
15050;BME280;7622;42.724;23.250;2023-06-14T12:13:34;94315.88;;;27.27;78.13
15050;BME280;7622;42.724;23.250;2023-06-14T12:16:01;94305.16;;;27.54;72.90
15050;BME280;7622;42.724;23.250;2023-06-14T12:18:32;94322.50;;;27.52;72.85
15050;BME280;7622;42.724;23.250;2023-06-14T12:21:00;94305.38;;;27.85;71.16
15050;BME280;7622;42.724;23.250;2023-06-14T12:23:39;94315.19;;;27.37;77.47
15050;BME280;7622;42.724;23.250;2023-06-14T12:26:07;94311.66;;;26.99;80.89
15050;BME280;7622;42.724;23.250;2023-06-14T12:28:34;94311.88;;;26.71;81.62
15050;BME280;7622;42.724;23.250;2023-06-14T12:31:01;94312.72;;;26.98;79.15
15050;BME280;7622;42.724;23.250;2023-06-14T12:33:28;94310.34;;;27.34;76.91
15050;BME280;7622;42.724;23.250;2023-06-14T12:35:55;94304.78;;;27.40;77.41
15050;BME280;7622;42.724;23.250;2023-06-14T12:38:24;94303.38;;;27.33;74.31
15050;BME280;7622;42.724;23.250;2023-06-14T12:40:51;94287.91;;;27.30;75.35
15050;BME280;7622;42.724;23.250;2023-06-14T12:43:19;94295.91;;;27.30;76.60
15050;BME280;7622;42.724;23.250;2023-06-14T12:45:46;94291.47;;;27.45;75.26
15050;BME280;7622;42.724;23.250;2023-06-14T12:48:12;94286.28;;;27.29;74.07
15050;BME280;7622;42.724;23.250;2023-06-14T12:50:39;94286.09;;;27.03;79.03
15050;BME280;7622;42.724;23.250;2023-06-14T12:53:06;94280.84;;;26.87;75.95
15050;BME280;7622;42.724;23.250;2023-06-14T12:55:33;94281.88;;;26.81;77.02
15050;BME280;7622;42.724;23.250;2023-06-14T12:57:59;94274.03;;;26.96;73.81
15050;BME280;7622;42.724;23.250;2023-06-14T13:00:27;94277.00;;;26.46;76.67
15050;BME280;7622;42.724;23.250;2023-06-14T13:02:55;94273.38;;;26.30;76.97
15050;BME280;7622;42.724;23.250;2023-06-14T13:05:22;94270.13;;;26.28;78.48